Time;durP1;ratioP1;P1;durP2;ratioP2;P2;SDS_P1;SDS_P2;PMS_P1;PMS_P2;Temp;Humidity;BMP_temperature;BMP_pressure;BME280_temperature;BME280_humidity;BME280_pressure;Samples;Min_cycle;Max_cycle;Signal;HPM_P1;HPM_P2
2022/07/28 00:02:01;;;;;;;;;;;;;;;22.34;88.59;95190.44;5076136;28;980;-49
2022/07/28 00:04:27;;;;;;;;;;;;;;;22.20;87.67;95174.28;5075763;28;970;-50
2022/07/28 00:06:52;;;;;;;;;;;;;;;22.20;89.24;95170.72;5075952;28;1029;-50
2022/07/28 00:09:19;;;;;;;;;;;;;;;22.33;87.71;95173.28;5075691;28;1072;-50
2022/07/28 00:11:45;;;;;;;;;;;;;;;22.28;88.25;95164.97;5076132;28;1043;-50
2022/07/28 00:14:11;;;;;;;;;;;;;;;22.42;88.10;95177.31;5075762;28;1329;-50
2022/07/28 00:16:37;;;;;;;;;;;;;;;22.58;88.25;95172.25;5075867;28;1918;-50
2022/07/28 00:19:03;;;;;;;;;;;;;;;22.55;87.15;95178.97;5075598;28;1187;-49
2022/07/28 00:21:29;;;;;;;;;;;;;;;22.55;88.50;95180.88;5075732;28;1016;-50
2022/07/28 00:23:55;;;;;;;;;;;;;;;22.54;86.83;95185.50;5075859;28;1113;-50
2022/07/28 00:26:22;;;;;;;;;;;;;;;22.50;88.13;95197.09;5075567;28;1215;-50
2022/07/28 00:28:48;;;;;;;;;;;;;;;22.23;90.09;95194.75;5075605;28;1033;-50
2022/07/28 00:31:14;;;;;;;;;;;;;;;22.39;88.71;95196.03;5075427;28;1016;-50
2022/07/28 00:33:40;;;;;;;;;;;;;;;22.32;90.51;95182.50;5075513;28;1904;-50
2022/07/28 00:36:09;;;;;;;;;;;;;;;22.35;90.59;95195.66;5074826;28;1906;-50
2022/07/28 00:38:36;;;;;;;;;;;;;;;22.38;90.31;95192.44;5075372;28;1036;-50
2022/07/28 00:41:11;;;;;;;;;;;;;;;22.20;91.01;95198.78;5075081;28;1028;-50
2022/07/28 00:43:38;;;;;;;;;;;;;;;22.15;91.80;95193.19;5085138;28;1238;-50
2022/07/28 00:46:04;;;;;;;;;;;;;;;22.12;92.07;95199.13;5095329;28;1019;-50
2022/07/28 00:48:29;;;;;;;;;;;;;;;22.08;91.31;95197.09;5095505;28;971;-50
2022/07/28 00:50:56;;;;;;;;;;;;;;;22.03;91.99;95190.44;5095136;28;1067;-50
2022/07/28 00:53:22;;;;;;;;;;;;;;;21.96;92.30;95170.66;5095465;28;1000;-50
2022/07/28 00:55:48;;;;;;;;;;;;;;;21.99;92.33;95166.66;5095134;28;1040;-50
2022/07/28 00:58:14;;;;;;;;;;;;;;;21.95;91.10;95152.66;5094902;28;1906;-50
2022/07/28 01:00:40;;;;;;;;;;;;;;;22.16;89.08;95145.03;5095185;28;973;-50
2022/07/28 01:03:06;;;;;;;;;;;;;;;21.90;91.07;95138.91;5095154;28;951;-50
2022/07/28 01:05:51;;;;;;;;;;;;;;;21.86;91.24;95139.63;5094709;28;978;-50
2022/07/28 01:08:32;;;;;;;;;;;;;;;21.87;92.22;95133.09;5095210;28;1011;-50
2022/07/28 01:11:05;;;;;;;;;;;;;;;21.87;91.49;95130.38;5094991;28;954;-50
2022/07/28 01:13:31;;;;;;;;;;;;;;;21.86;91.49;95131.47;5095073;28;1062;-50
2022/07/28 01:16:00;;;;;;;;;;;;;;;21.99;92.78;95140.25;5094647;28;1913;-50
2022/07/28 01:18:31;;;;;;;;;;;;;;;22.14;90.71;95138.97;5095092;28;1054;-50
2022/07/28 01:21:01;;;;;;;;;;;;;;;22.09;90.40;95127.97;5094852;28;1020;-50
2022/07/28 01:23:33;;;;;;;;;;;;;;;21.99;91.49;95129.38;5094917;28;1021;-50
2022/07/28 01:26:05;;;;;;;;;;;;;;;21.96;91.72;95135.25;5094382;28;1097;-51
2022/07/28 01:28:31;;;;;;;;;;;;;;;21.85;91.10;95138.78;5094636;28;974;-50
2022/07/28 01:31:01;;;;;;;;;;;;;;;21.56;93.71;95138.56;5094702;28;976;-50
2022/07/28 01:33:38;;;;;;;;;;;;;;;21.47;92.32;95148.09;5094945;28;984;-50
2022/07/28 01:36:07;;;;;;;;;;;;;;;21.57;92.15;95142.09;5094338;28;1922;-50
2022/07/28 01:38:34;;;;;;;;;;;;;;;21.64;93.13;95140.13;5094465;28;1064;-50
2022/07/28 01:41:01;;;;;;;;;;;;;;;21.64;92.05;95140.97;5094158;28;1023;-50
2022/07/28 01:43:28;;;;;;;;;;;;;;;21.62;93.00;95159.41;5086017;28;1240;-50
2022/07/28 01:45:55;;;;;;;;;;;;;;;21.80;91.98;95177.59;5074078;28;1041;-50
2022/07/28 01:48:22;;;;;;;;;;;;;;;21.92;91.04;95185.78;5073945;28;1080;-50
2022/07/28 01:50:49;;;;;;;;;;;;;;;21.99;92.26;95183.81;5073925;28;1034;-50
2022/07/28 01:53:16;;;;;;;;;;;;;;;21.96;92.46;95178.00;5073874;28;1064;-50
2022/07/28 01:55:43;;;;;;;;;;;;;;;21.94;92.84;95186.38;5073682;28;1041;-50
2022/07/28 01:58:11;;;;;;;;;;;;;;;21.88;93.16;95195.47;5074083;28;1910;-50
2022/07/28 02:00:38;;;;;;;;;;;;;;;21.79;95.25;95188.69;5073883;28;1024;-50
2022/07/28 02:03:05;;;;;;;;;;;;;;;21.80;95.02;95180.31;5073621;28;1028;-50
2022/07/28 02:05:33;;;;;;;;;;;;;;;21.67;95.66;95175.03;5073679;28;1040;-50
2022/07/28 02:08:00;;;;;;;;;;;;;;;21.73;95.01;95181.47;5073522;28;1092;-50
2022/07/28 02:10:27;;;;;;;;;;;;;;;21.69;95.41;95178.38;5072695;28;982;-50
2022/07/28 02:12:54;;;;;;;;;;;;;;;21.60;96.09;95168.84;5073455;28;1025;-50
2022/07/28 02:15:20;;;;;;;;;;;;;;;21.50;97.32;95155.81;5073707;28;1053;-50
2022/07/28 02:17:47;;;;;;;;;;;;;;;21.38;95.67;95146.72;5073403;28;1914;-50
2022/07/28 02:20:15;;;;;;;;;;;;;;;21.31;95.23;95154.97;5073482;28;1183;-50
2022/07/28 02:22:41;;;;;;;;;;;;;;;21.39;94.92;95167.44;5073528;28;942;-50
2022/07/28 02:25:07;;;;;;;;;;;;;;;21.61;94.29;95182.25;5073178;28;1282;-50
2022/07/28 02:27:36;;;;;;;;;;;;;;;21.80;92.72;95180.31;5073513;28;1008;-50
2022/07/28 02:30:07;;;;;;;;;;;;;;;21.61;93.99;95165.91;5073509;28;1024;-50
2022/07/28 02:32:44;;;;;;;;;;;;;;;21.64;92.23;95153.72;5073388;28;1052;-50
2022/07/28 02:35:14;;;;;;;;;;;;;;;21.69;89.99;95153.06;5055504;28;1457;-50
2022/07/28 02:37:44;;;;;;;;;;;;;;;21.63;90.33;95147.47;5073312;28;1910;-49
2022/07/28 02:40:12;;;;;;;;;;;;;;;21.35;93.56;95145.28;5073445;28;1009;-50
2022/07/28 02:42:39;;;;;;;;;;;;;;;21.35;91.08;95145.28;5074950;28;1842;-50
2022/07/28 02:45:07;;;;;;;;;;;;;;;21.37;92.25;95154.03;5093369;28;1037;-50
2022/07/28 02:47:36;;;;;;;;;;;;;;;21.37;92.71;95170.38;5093257;28;1006;-50
2022/07/28 02:50:02;;;;;;;;;;;;;;;21.15;96.18;95169.16;5075407;28;958;-50
2022/07/28 02:52:29;;;;;;;;;;;;;;;21.05;96.30;95162.38;5093293;28;1071;-50
2022/07/28 02:54:56;;;;;;;;;;;;;;;21.14;95.38;95167.53;5093579;28;962;-50
2022/07/28 02:57:23;;;;;;;;;;;;;;;21.24;94.75;95176.78;5093190;28;2018;-50
2022/07/28 02:59:50;;;;;;;;;;;;;;;21.35;94.00;95171.66;5093345;28;1036;-50
2022/07/28 03:02:20;;;;;;;;;;;;;;;21.25;93.99;95161.31;5093113;28;1032;-50
2022/07/28 03:04:57;;;;;;;;;;;;;;;21.22;92.78;95159.88;5093012;28;1029;-50
2022/07/28 03:07:27;;;;;;;;;;;;;;;21.33;92.14;95168.34;5093217;28;1108;-50
2022/07/28 03:09:53;;;;;;;;;;;;;;;21.36;92.71;95157.84;5093383;28;1049;-50
2022/07/28 03:12:19;;;;;;;;;;;;;;;21.41;92.21;95143.53;5092978;28;1037;-50
2022/07/28 03:14:45;;;;;;;;;;;;;;;21.46;87.35;95127.41;5093244;28;1029;-49
2022/07/28 03:17:11;;;;;;;;;;;;;;;21.44;87.65;95103.16;5092793;28;1902;-50
2022/07/28 03:19:37;;;;;;;;;;;;;;;21.40;87.94;95092.94;5093147;28;1053;-50
2022/07/28 03:22:04;;;;;;;;;;;;;;;21.37;88.41;95093.41;5094933;28;1076;-50
2022/07/28 03:24:32;;;;;;;;;;;;;;;21.47;87.37;95088.25;5097260;28;1025;-49
2022/07/28 03:27:01;;;;;;;;;;;;;;;21.34;89.28;95069.38;5097048;28;1111;-50
2022/07/28 03:29:30;;;;;;;;;;;;;;;21.30;90.71;95058.13;5096925;28;1077;-50
2022/07/28 03:31:57;;;;;;;;;;;;;;;20.97;93.58;95017.81;5096902;28;1127;-50
2022/07/28 03:34:23;;;;;;;;;;;;;;;20.85;94.11;95005.00;5096478;28;1107;-49
2022/07/28 03:36:52;;;;;;;;;;;;;;;20.85;94.03;95067.50;5096937;28;1985;-49
2022/07/28 03:39:20;;;;;;;;;;;;;;;21.19;91.58;95126.88;5096662;28;985;-49
2022/07/28 03:41:47;;;;;;;;;;;;;;;21.42;91.15;95123.47;5096828;28;966;-50
2022/07/28 03:44:13;;;;;;;;;;;;;;;21.28;92.50;95122.78;5081392;28;1154;-49
2022/07/28 03:46:42;;;;;;;;;;;;;;;21.26;93.40;95122.19;5076306;28;1080;-50
2022/07/28 03:49:08;;;;;;;;;;;;;;;21.26;93.60;95116.75;5076233;28;996;-50
2022/07/28 03:51:34;;;;;;;;;;;;;;;21.19;93.40;95084.22;5076289;28;1017;-49
2022/07/28 03:54:00;;;;;;;;;;;;;;;21.14;93.75;95069.66;5076120;28;1023;-50
2022/07/28 03:56:26;;;;;;;;;;;;;;;21.14;94.20;95075.09;5076093;28;1909;-50
2022/07/28 03:58:52;;;;;;;;;;;;;;;21.25;94.33;95080.56;5075960;28;917;-50
2022/07/28 04:01:18;;;;;;;;;;;;;;;21.18;93.18;95066.22;5076301;28;946;-49
2022/07/28 04:03:44;;;;;;;;;;;;;;;21.27;93.15;95083.06;5075792;28;1861;-49
2022/07/28 04:06:13;;;;;;;;;;;;;;;21.30;92.42;95089.94;5075922;28;1074;-49
2022/07/28 04:08:40;;;;;;;;;;;;;;;21.32;92.69;95087.81;5076100;28;1033;-49
2022/07/28 04:11:06;;;;;;;;;;;;;;;21.40;91.57;95096.50;5075960;28;1038;-49
2022/07/28 04:13:33;;;;;;;;;;;;;;;21.37;92.71;95099.66;5075685;28;1051;-50
2022/07/28 04:15:59;;;;;;;;;;;;;;;21.38;92.62;95095.03;5076082;28;1056;-49
2022/07/28 04:18:25;;;;;;;;;;;;;;;21.38;92.48;95098.63;5075813;28;1918;-50
2022/07/28 04:20:51;;;;;;;;;;;;;;;21.32;91.42;95096.78;5075771;28;1954;-50
2022/07/28 04:23:19;;;;;;;;;;;;;;;21.48;90.53;95125.28;5075426;28;1069;-50
2022/07/28 04:25:45;;;;;;;;;;;;;;;21.45;91.16;95123.00;5075470;28;1081;-50
2022/07/28 04:28:11;;;;;;;;;;;;;;;21.39;91.39;95108.41;5075265;28;985;-50
2022/07/28 04:30:37;;;;;;;;;;;;;;;21.47;91.19;95109.19;5075561;28;1033;-50
2022/07/28 04:33:03;;;;;;;;;;;;;;;21.51;90.76;95116.66;5074515;28;969;-50
2022/07/28 04:35:29;;;;;;;;;;;;;;;21.53;91.17;95117.28;5075403;28;1000;-50
2022/07/28 04:37:57;;;;;;;;;;;;;;;21.49;91.45;95115.22;5075495;28;1909;-49
2022/07/28 04:40:23;;;;;;;;;;;;;;;21.50;91.24;95106.84;5075234;28;984;-49
2022/07/28 04:42:49;;;;;;;;;;;;;;;21.54;92.13;95104.50;5078510;28;1162;-49
2022/07/28 04:45:15;;;;;;;;;;;;;;;21.66;91.88;95107.25;5095470;28;950;-49
2022/07/28 04:47:41;;;;;;;;;;;;;;;21.80;91.57;95109.56;5095708;28;1885;-49
2022/07/28 04:50:08;;;;;;;;;;;;;;;22.06;89.89;95107.47;5095423;28;1007;-50
2022/07/28 04:52:35;;;;;;;;;;;;;;;22.25;89.24;95107.38;5077475;28;974;-50
2022/07/28 04:55:01;;;;;;;;;;;;;;;22.31;88.95;95107.31;5077104;28;1024;-49
2022/07/28 04:57:28;;;;;;;;;;;;;;;22.40;89.72;95100.47;5095211;28;1991;-49
2022/07/28 04:59:59;;;;;;;;;;;;;;;22.49;86.43;95111.00;5095303;28;996;-49
2022/07/28 05:02:25;;;;;;;;;;;;;;;22.54;87.72;95111.94;5095376;28;1068;-50
2022/07/28 05:04:52;;;;;;;;;;;;;;;22.55;86.97;95104.59;5094937;28;981;-49
2022/07/28 05:07:18;;;;;;;;;;;;;;;22.41;87.21;95101.28;5095111;28;1057;-49
2022/07/28 05:09:44;;;;;;;;;;;;;;;22.55;86.32;95102.69;5095338;28;1012;-50
2022/07/28 05:12:11;;;;;;;;;;;;;;;22.57;86.24;95110.63;5094907;28;996;-50
2022/07/28 05:14:37;;;;;;;;;;;;;;;22.72;86.10;95116.41;5095046;28;1040;-49
2022/07/28 05:17:03;;;;;;;;;;;;;;;23.08;84.81;95108.22;5094916;28;1984;-49
2022/07/28 05:19:29;;;;;;;;;;;;;;;22.98;85.82;95106.91;5094743;28;1946;-50
2022/07/28 05:21:55;;;;;;;;;;;;;;;22.87;87.16;95118.66;5076965;28;1034;-49
2022/07/28 05:24:21;;;;;;;;;;;;;;;22.89;86.95;95105.63;5094570;28;985;-50
2022/07/28 05:26:48;;;;;;;;;;;;;;;23.32;85.00;95103.56;5094535;28;1088;-49
2022/07/28 05:29:14;;;;;;;;;;;;;;;23.84;81.73;95111.66;5094458;28;1968;-50
2022/07/28 05:31:39;;;;;;;;;;;;;;;23.86;79.01;95122.34;5094836;28;1044;-50
2022/07/28 05:34:06;;;;;;;;;;;;;;;23.76;80.56;95122.94;5094390;28;1016;-49
2022/07/28 05:36:32;;;;;;;;;;;;;;;23.62;80.21;95111.50;5094560;28;1886;-50
2022/07/28 05:38:58;;;;;;;;;;;;;;;23.79;80.91;95125.25;5094543;28;962;-50
2022/07/28 05:41:24;;;;;;;;;;;;;;;24.19;79.20;95132.50;5094217;28;969;-49
2022/07/28 05:43:50;;;;;;;;;;;;;;;24.69;79.68;95139.06;5082634;28;1150;-49
2022/07/28 05:46:16;;;;;;;;;;;;;;;25.31;75.65;95140.78;5074054;28;982;-50
2022/07/28 05:48:42;;;;;;;;;;;;;;;24.41;79.86;95137.22;5074063;28;1025;-50
2022/07/28 05:51:08;;;;;;;;;;;;;;;24.01;81.10;95132.72;5073737;28;1029;-49
2022/07/28 05:53:34;;;;;;;;;;;;;;;23.70;81.91;95137.59;5074035;28;1069;-51
2022/07/28 05:56:00;;;;;;;;;;;;;;;23.57;83.11;95144.16;5073638;28;992;-50
2022/07/28 05:58:26;;;;;;;;;;;;;;;23.24;82.52;95144.81;5074041;28;1906;-49
2022/07/28 06:00:52;;;;;;;;;;;;;;;22.95;83.84;95147.47;5056100;28;958;-50
2022/07/28 06:03:18;;;;;;;;;;;;;;;22.92;84.20;95147.94;5073678;28;1127;-50
2022/07/28 06:05:44;;;;;;;;;;;;;;;23.05;83.85;95152.31;5073543;28;1073;-49
2022/07/28 06:08:10;;;;;;;;;;;;;;;22.99;84.80;95152.22;5073694;28;1022;-50
2022/07/28 06:13:22;;;;;;;;;;;;;;;22.95;84.07;95152.91;5073649;28;1096;-50
2022/07/28 06:15:48;;;;;;;;;;;;;;;23.06;84.21;95149.38;5073632;28;1036;-50
2022/07/28 06:18:14;;;;;;;;;;;;;;;23.12;82.96;95136.69;5073593;28;2036;-50
2022/07/28 06:20:40;;;;;;;;;;;;;;;23.25;83.09;95149.22;5073471;28;977;-50
2022/07/28 06:23:07;;;;;;;;;;;;;;;23.22;83.35;95153.28;5073420;28;1049;-50
2022/07/28 06:25:33;;;;;;;;;;;;;;;23.04;83.73;95156.16;5073167;28;1088;-50
2022/07/28 06:28:01;;;;;;;;;;;;;;;22.89;84.31;95156.59;5073451;28;1069;-50
2022/07/28 06:30:27;;;;;;;;;;;;;;;22.87;86.00;95159.56;5073253;28;1088;-49
2022/07/28 06:32:53;;;;;;;;;;;;;;;22.75;84.83;95170.47;5073411;28;1125;-47
2022/07/28 06:35:19;;;;;;;;;;;;;;;22.71;85.66;95169.28;5073080;28;986;-48
2022/07/28 06:37:46;;;;;;;;;;;;;;;22.59;85.30;95165.72;5073260;28;1947;-50
2022/07/28 06:40:13;;;;;;;;;;;;;;;22.55;87.75;95169.97;5073444;28;983;-53
2022/07/28 06:42:40;;;;;;;;;;;;;;;22.51;87.50;95163.34;5074999;28;1163;-49
2022/07/28 06:45:07;;;;;;;;;;;;;;;22.47;85.83;95162.16;5093600;28;1044;-50
2022/07/28 06:47:33;;;;;;;;;;;;;;;22.51;87.07;95179.69;5093435;28;1034;-51
2022/07/28 06:49:59;;;;;;;;;;;;;;;22.53;87.52;95169.38;5093410;28;1028;-50
2022/07/28 06:52:25;;;;;;;;;;;;;;;22.43;89.79;95164.53;5093194;28;1877;-48
2022/07/28 06:54:52;;;;;;;;;;;;;;;22.56;86.02;95166.19;5093390;28;979;-49
2022/07/28 06:57:19;;;;;;;;;;;;;;;22.64;85.65;95165.84;5095842;28;1909;-49
2022/07/28 06:59:45;;;;;;;;;;;;;;;22.63;84.48;95163.34;5097597;28;1096;-48
2022/07/28 07:02:11;;;;;;;;;;;;;;;;;;5097409;28;1028;-49
2022/07/28 07:04:37;;;;;;;;;;;;;;;22.73;86.58;95169.06;5097393;28;968;-48
2022/07/28 07:07:04;;;;;;;;;;;;;;;22.79;85.98;95168.91;5097121;28;1048;-48
2022/07/28 07:09:30;;;;;;;;;;;;;;;22.93;85.75;95165.94;5097666;28;1060;-48
2022/07/28 07:11:56;;;;;;;;;;;;;;;22.94;84.56;95171.16;5097441;28;997;-49
2022/07/28 07:14:22;;;;;;;;;;;;;;;23.01;84.21;95171.03;5097366;28;972;-49
2022/07/28 07:16:49;;;;;;;;;;;;;;;23.15;83.67;95179.84;5097013;28;1901;-49
2022/07/28 07:19:15;;;;;;;;;;;;;;;23.35;82.84;95191.19;5097216;28;1000;-49
2022/07/28 07:21:41;;;;;;;;;;;;;;;23.51;83.04;95191.50;5096913;28;1029;-49
2022/07/28 07:24:10;;;;;;;;;;;;;;;23.65;80.90;95194.78;5097202;28;1008;-49
2022/07/28 07:26:36;;;;;;;;;;;;;;;23.83;80.96;95202.84;5096641;28;1068;-49
2022/07/28 07:29:03;;;;;;;;;;;;;;;23.87;81.53;95197.72;5097073;28;973;-51
2022/07/28 07:31:31;;;;;;;;;;;;;;;23.71;80.76;95200.13;5096962;28;1023;-49
2022/07/28 07:33:57;;;;;;;;;;;;;;;23.69;79.93;95209.59;5096975;28;1041;-49
2022/07/28 07:36:23;;;;;;;;;;;;;;;23.92;79.22;95203.25;5096314;28;1906;-48
2022/07/28 07:38:49;;;;;;;;;;;;;;;23.89;79.67;95201.03;5097023;28;1026;-49
2022/07/28 07:41:16;;;;;;;;;;;;;;;23.67;78.44;95192.66;5096758;28;1071;-50
2022/07/28 07:43:42;;;;;;;;;;;;;;;23.55;77.91;95203.59;5086002;28;1154;-50
2022/07/28 07:46:08;;;;;;;;;;;;;;;23.44;79.92;95221.66;5076430;28;963;-49
2022/07/28 07:48:34;;;;;;;;;;;;;;;23.43;79.94;95216.44;5076213;28;1091;-50
2022/07/28 07:51:00;;;;;;;;;;;;;;;23.28;78.53;95206.84;5076189;28;947;-50
2022/07/28 07:53:26;;;;;;;;;;;;;;;23.15;79.90;95199.75;5076386;28;958;-50
2022/07/28 07:55:52;;;;;;;;;;;;;;;23.05;82.71;95204.13;5076469;28;980;-50
2022/07/28 07:58:18;;;;;;;;;;;;;;;22.91;84.84;95206.25;5076050;28;1906;-50
2022/07/28 08:00:44;;;;;;;;;;;;;;;23.00;85.96;95208.38;5076320;28;1025;-50
2022/07/28 08:03:10;;;;;;;;;;;;;;;22.87;83.35;95203.16;5075917;28;974;-50
2022/07/28 08:05:36;;;;;;;;;;;;;;;22.91;81.91;95208.97;5075842;28;1017;-49
2022/07/28 08:08:03;;;;;;;;;;;;;;;23.04;85.25;95216.13;5075732;28;1099;-50
2022/07/28 08:10:29;;;;;;;;;;;;;;;23.17;86.31;95227.63;5076194;28;969;-50
2022/07/28 08:12:55;;;;;;;;;;;;;;;23.45;84.71;95225.19;5075726;28;1175;-50
2022/07/28 08:15:21;;;;;;;;;;;;;;;23.72;80.89;95211.88;5075919;28;1032;-51
2022/07/28 08:17:47;;;;;;;;;;;;;;;23.97;78.95;95217.84;5075698;28;1982;-51
2022/07/28 08:20:13;;;;;;;;;;;;;;;24.13;81.06;95229.06;5075664;28;1041;-50
2022/07/28 08:22:53;;;;;;;;;;;;;;;24.26;77.21;95220.56;5075863;28;950;-50
2022/07/28 08:25:19;;;;;;;;;;;;;;;24.29;81.07;95220.09;5075696;28;1081;-51
2022/07/28 08:27:45;;;;;;;;;;;;;;;24.33;77.61;95221.25;5075708;28;938;-51
2022/07/28 08:30:13;;;;;;;;;;;;;;;24.24;74.57;95216.44;5075665;28;1007;-50
2022/07/28 08:32:40;;;;;;;;;;;;;;;24.09;74.61;95215.09;5075493;28;963;-50
2022/07/28 08:35:06;;;;;;;;;;;;;;;23.95;77.33;95217.25;5057447;28;1012;-50
2022/07/28 08:37:32;;;;;;;;;;;;;;;23.82;78.43;95225.75;5075468;28;1987;-50
2022/07/28 08:39:58;;;;;;;;;;;;;;;23.63;80.21;95218.75;5075479;28;1202;-50
2022/07/28 08:42:27;;;;;;;;;;;;;;;23.44;79.73;95229.00;5075582;28;1062;-50
2022/07/28 08:45:00;;;;;;;;;;;;;;;23.31;78.93;95225.47;5075305;28;1863;-50
2022/07/28 08:47:29;;;;;;;;;;;;;;;23.30;82.47;95236.63;5075148;28;1025;-50
2022/07/28 08:49:56;;;;;;;;;;;;;;;23.29;80.25;95232.22;5075502;28;992;-50
2022/07/28 08:52:23;;;;;;;;;;;;;;;23.29;82.05;95234.97;5075149;28;1141;-50
2022/07/28 08:54:50;;;;;;;;;;;;;;;23.19;79.45;95239.09;5075191;28;1017;-50
2022/07/28 08:57:19;;;;;;;;;;;;;;;23.29;79.88;95234.97;5074917;28;2013;-51
2022/07/28 08:59:45;;;;;;;;;;;;;;;23.24;80.72;95241.16;5075056;28;1871;-50
2022/07/28 09:02:12;;;;;;;;;;;;;;;23.20;79.37;95248.13;5074722;28;974;-50
2022/07/28 09:04:38;;;;;;;;;;;;;;;23.18;78.48;95244.78;5074839;28;1026;-50
2022/07/28 09:07:05;;;;;;;;;;;;;;;23.28;80.58;95241.50;5075041;28;993;-50
2022/07/28 09:09:31;;;;;;;;;;;;;;;23.33;82.38;95236.13;5074809;28;1029;-50
2022/07/28 09:12:00;;;;;;;;;;;;;;;23.28;82.59;95234.13;5074930;28;1027;-50
2022/07/28 09:14:26;;;;;;;;;;;;;;;23.29;81.30;95230.31;5074580;28;1972;-50
2022/07/28 09:16:52;;;;;;;;;;;;;;;23.42;80.45;95231.16;5074554;28;1913;-50
2022/07/28 09:19:18;;;;;;;;;;;;;;;23.49;83.30;95242.78;5074154;28;1031;-51
2022/07/28 09:21:44;;;;;;;;;;;;;;;23.62;79.79;95242.50;5074565;28;938;-51
2022/07/28 09:24:30;;;;;;;;;;;;;;;23.77;79.69;95237.38;5074369;28;1020;-50
2022/07/28 09:26:58;;;;;;;;;;;;;;;23.86;81.24;95237.81;5074387;28;1254;-50
2022/07/28 09:29:24;;;;;;;;;;;;;;;24.04;81.04;95233.28;5074120;28;996;-50
2022/07/28 09:31:50;;;;;;;;;;;;;;;24.23;79.30;95234.72;5074384;28;1029;-51
2022/07/28 09:34:16;;;;;;;;;;;;;;;24.26;76.35;95228.75;5074058;28;1012;-50
2022/07/28 09:36:43;;;;;;;;;;;;;;;24.17;78.92;95235.72;5074377;28;1921;-51
2022/07/28 09:39:09;;;;;;;;;;;;;;;24.29;78.35;95222.81;5073932;28;1017;-50
2022/07/28 09:41:55;;;;;;;;;;;;;;;24.44;76.21;95224.16;5074303;28;1052;-50
2022/07/28 10:21:22;;;;;;;;;;;;;;;26.87;69.68;95197.78;5093873;28;729;-51
2022/07/28 10:23:52;;;;;;;;;;;;;;;26.87;67.92;95195.03;5093626;28;1003;-52
2022/07/28 10:26:19;;;;;;;;;;;;;;;27.06;68.17;95192.69;5093658;28;1246;-51
2022/07/28 10:28:47;;;;;;;;;;;;;;;27.05;64.42;95177.31;5093673;28;1064;-50
2022/07/28 10:31:16;;;;;;;;;;;;;;;27.12;69.06;95191.63;5092755;28;1068;-50
2022/07/28 10:33:45;;;;;;;;;;;;;;;27.19;68.59;95174.94;5093601;28;1015;-50
2022/07/28 10:36:12;;;;;;;;;;;;;;;27.22;67.35;95180.75;5093268;28;1072;-50
2022/07/28 10:38:38;;;;;;;;;;;;;;;27.32;66.56;95171.75;5093726;28;1987;-50
2022/07/28 10:41:05;;;;;;;;;;;;;;;27.38;68.59;95172.63;5093715;28;1040;-50
2022/07/28 10:43:32;;;;;;;;;;;;;;;27.31;67.15;95170.09;5084508;28;1154;-51
2022/07/28 10:45:58;;;;;;;;;;;;;;;27.35;67.18;95162.16;5073222;28;1049;-50
2022/07/28 10:48:25;;;;;;;;;;;;;;;27.35;66.98;95160.22;5073262;28;1028;-51
2022/07/28 10:50:56;;;;;;;;;;;;;;;27.17;64.80;95158.75;5073016;28;973;-50
2022/07/28 10:53:36;;;;;;;;;;;;;;;27.16;65.69;95153.50;5073099;28;1009;-51
2022/07/28 10:56:06;;;;;;;;;;;;;;;27.31;65.43;95155.56;5072931;28;1220;-51
2022/07/28 10:58:50;;;;;;;;;;;;;;;27.45;66.13;95149.31;5073052;28;1902;-50
2022/07/28 11:01:33;;;;;;;;;;;;;;;27.61;65.72;95154.88;5072798;28;1039;-50
2022/07/28 11:03:59;;;;;;;;;;;;;;;27.68;64.79;95147.22;5073225;28;977;-51
2022/07/28 11:06:25;;;;;;;;;;;;;;;27.68;66.33;95144.47;5073170;28;1218;-50
2022/07/28 11:08:52;;;;;;;;;;;;;;;27.55;65.96;95139.47;5055388;28;990;-50
2022/07/28 11:11:37;;;;;;;;;;;;;;;27.66;66.02;95143.91;5072870;28;966;-51
2022/07/28 11:14:21;;;;;;;;;;;;;;;27.73;65.58;95138.16;5072905;28;969;-51
2022/07/28 11:16:48;;;;;;;;;;;;;;;27.67;66.06;95140.06;5072964;28;1988;-50
2022/07/28 11:19:17;;;;;;;;;;;;;;;27.58;65.37;95133.44;5073032;28;1036;-50
2022/07/28 11:22:02;;;;;;;;;;;;;;;27.56;61.91;95130.94;5072804;28;1079;-51
2022/07/28 11:24:48;;;;;;;;;;;;;;;27.57;61.49;95137.28;5072838;28;978;-51
2022/07/28 11:27:14;;;;;;;;;;;;;;;27.64;63.68;95129.59;5072577;28;1158;-50
2022/07/28 11:29:44;;;;;;;;;;;;;;;27.71;63.58;95127.44;5072840;28;954;-50
2022/07/28 11:32:10;;;;;;;;;;;;;;;27.73;62.91;95127.16;5072869;28;1029;-51
2022/07/28 11:34:55;;;;;;;;;;;;;;;27.79;63.92;95120.59;5072643;28;1049;-51
2022/07/28 11:37:21;;;;;;;;;;;;;;;27.81;63.18;95113.75;5072851;28;1914;-51
2022/07/28 11:39:47;;;;;;;;;;;;;;;27.90;63.52;95115.97;5072831;28;962;-51
2022/07/28 11:42:22;;;;;;;;;;;;;;;27.87;64.72;95111.00;5073392;28;1020;-51
2022/07/28 11:44:48;;;;;;;;;;;;;;;27.97;61.82;95108.31;5096312;28;1182;-51
2022/07/28 11:47:16;;;;;;;;;;;;;;;28.03;61.72;95097.03;5096518;28;1016;-51
2022/07/28 11:49:43;;;;;;;;;;;;;;;28.09;61.57;95102.56;5096678;28;1036;-51
2022/07/28 11:52:16;;;;;;;;;;;;;;;28.24;64.61;95095.13;5096559;28;1037;-51
2022/07/28 11:54:46;;;;;;;;;;;;;;;28.40;61.44;95095.13;5096737;28;1040;-51
2022/07/28 11:57:12;;;;;;;;;;;;;;;28.35;58.84;95092.41;5096333;28;1986;-51
2022/07/28 11:59:46;;;;;;;;;;;;;;;28.39;60.58;95091.56;5096506;28;1048;-51
2022/07/28 12:02:16;;;;;;;;;;;;;;;28.43;56.82;95091.84;5096418;28;1053;-51
2022/07/28 12:04:42;;;;;;;;;;;;;;;28.41;57.43;95085.81;5096378;28;1041;-51
2022/07/28 12:07:08;;;;;;;;;;;;;;;28.47;56.32;95079.19;5096250;28;961;-51
2022/07/28 12:09:36;;;;;;;;;;;;;;;28.55;56.18;95080.59;5096330;28;1103;-52
2022/07/28 12:12:02;;;;;;;;;;;;;;;28.55;56.91;95075.09;5096089;28;966;-51
2022/07/28 12:14:29;;;;;;;;;;;;;;;28.49;56.63;95071.50;5096249;28;941;-52
2022/07/28 12:16:55;;;;;;;;;;;;;;;28.51;53.22;95065.72;5096156;28;1994;-52
2022/07/28 12:19:21;;;;;;;;;;;;;;;28.57;57.65;95068.22;5096406;28;1041;-51
2022/07/28 12:21:47;;;;;;;;;;;;;;;28.54;53.91;95067.97;5096060;28;946;-51
2022/07/28 12:24:33;;;;;;;;;;;;;;;28.53;54.70;95061.66;5095910;28;1005;-50
2022/07/28 12:26:59;;;;;;;;;;;;;;;28.62;56.50;95064.63;5095635;28;1179;-51
2022/07/28 12:29:30;;;;;;;;;;;;;;;28.67;56.38;95061.88;5096172;28;1034;-51
2022/07/28 12:31:57;;;;;;;;;;;;;;;28.72;60.33;95058.28;5095945;28;913;-51
2022/07/28 12:34:25;;;;;;;;;;;;;;;28.74;58.59;95051.44;5095703;28;980;-51
2022/07/28 12:36:52;;;;;;;;;;;;;;;28.81;58.64;95053.88;5095567;28;1914;-51
2022/07/28 12:39:21;;;;;;;;;;;;;;;28.80;57.02;95044.81;5095704;28;1055;-51
2022/07/28 12:41:47;;;;;;;;;;;;;;;28.80;60.36;95049.50;5095415;28;1083;-52
2022/07/28 12:44:13;;;;;;;;;;;;;;;28.87;60.97;95050.00;5080775;28;1158;-51
2022/07/28 12:46:43;;;;;;;;;;;;;;;28.89;57.67;95045.03;5075132;28;1096;-51
2022/07/28 12:49:18;;;;;;;;;;;;;;;28.85;55.29;95043.97;5075341;28;1006;-51
2022/07/28 12:51:44;;;;;;;;;;;;;;;28.86;58.15;95040.13;5075124;28;1076;-52
2022/07/28 12:54:11;;;;;;;;;;;;;;;28.87;58.05;95033.50;5074195;28;1045;-51
2022/07/28 12:56:51;;;;;;;;;;;;;;;28.87;56.73;95039.00;5075179;28;2032;-52
2022/07/28 13:10:26;;;;;;;;;;;;;;;28.45;59.96;95026.41;4779700;27;1307505;-51
2022/07/28 13:13:03;;;;;;;;;;;;;;;28.70;60.99;95031.06;5152088;27;964;-51
2022/07/28 13:15:30;;;;;;;;;;;;;;;28.86;61.83;95026.38;5152614;27;972;-50
2022/07/28 13:17:56;;;;;;;;;;;;;;;29.05;56.16;95023.81;5151944;27;1043;-50
2022/07/28 13:20:23;;;;;;;;;;;;;;;29.22;55.64;95020.75;5152017;27;1040;-50
2022/07/28 13:22:49;;;;;;;;;;;;;;;29.33;53.71;95019.59;5152000;27;1031;-51
2022/07/28 13:25:15;;;;;;;;;;;;;;;29.38;54.44;95021.50;5151955;27;1918;-51
2022/07/28 13:27:42;;;;;;;;;;;;;;;29.38;53.44;95022.31;5151796;27;973;-50
2022/07/28 13:30:08;;;;;;;;;;;;;;;29.41;54.15;95018.19;5151848;27;1080;-50
2022/07/28 13:32:35;;;;;;;;;;;;;;;29.47;54.09;95016.22;5151710;27;1048;-50
2022/07/28 13:35:01;;;;;;;;;;;;;;;29.50;51.94;95007.38;5151660;27;1031;-50
2022/07/28 13:37:28;;;;;;;;;;;;;;;29.54;50.57;95014.00;5133493;27;1063;-50
2022/07/28 13:39:54;;;;;;;;;;;;;;;29.59;53.28;95012.03;5151689;27;1100;-50
2022/07/28 13:42:20;;;;;;;;;;;;;;;29.60;50.81;95004.59;5132978;27;1872;-50
2022/07/28 13:44:46;;;;;;;;;;;;;;;29.61;50.01;94997.94;5151701;27;1906;-50
2022/07/28 13:47:12;;;;;;;;;;;;;;;29.50;50.95;94997.22;5151498;27;1108;-50
2022/07/28 13:49:38;;;;;;;;;;;;;;;29.39;51.08;94993.69;5151578;27;1094;-50
2022/07/28 13:52:06;;;;;;;;;;;;;;;29.25;49.85;94989.88;5151714;27;1020;-50
2022/07/28 13:54:32;;;;;;;;;;;;;;;29.19;49.35;94986.34;5151456;27;996;-50